sensor_id;sensor_type;location;lat;lon;timestamp;pressure;altitude;pressure_sealevel;temperature;humidity
74675;BME280;63200;48.810;12.352;2023-07-22T00:00:21;97410.38;;;14.11;66.44
74675;BME280;63200;48.810;12.352;2023-07-22T00:02:48;97399.44;;;14.11;66.92
74675;BME280;63200;48.810;12.352;2023-07-22T00:05:13;97374.44;;;13.95;66.69
74675;BME280;63200;48.810;12.352;2023-07-22T00:07:38;97396.84;;;14.06;66.80
74675;BME280;63200;48.810;12.352;2023-07-22T00:10:06;97403.16;;;13.93;66.99
74675;BME280;63200;48.810;12.352;2023-07-22T00:12:34;97372.25;;;13.47;67.00
74675;BME280;63200;48.810;12.352;2023-07-22T00:14:59;97398.00;;;13.55;67.25
74675;BME280;63200;48.810;12.352;2023-07-22T00:17:24;97399.34;;;13.43;68.10
74675;BME280;63200;48.810;12.352;2023-07-22T00:19:50;97400.13;;;13.30;68.38
74675;BME280;63200;48.810;12.352;2023-07-22T00:22:15;97395.78;;;13.15;68.56
74675;BME280;63200;48.810;12.352;2023-07-22T00:24:41;97344.91;;;12.55;68.70
74675;BME280;63200;48.810;12.352;2023-07-22T00:27:06;97410.31;;;12.82;68.92
74675;BME280;63200;48.810;12.352;2023-07-22T00:29:34;97401.31;;;12.68;69.12
74675;BME280;63200;48.810;12.352;2023-07-22T00:31:59;97396.25;;;12.61;69.31
74675;BME280;63200;48.810;12.352;2023-07-22T00:34:24;97403.09;;;12.59;69.56
74675;BME280;63200;48.810;12.352;2023-07-22T00:36:50;97399.34;;;12.55;69.93
74675;BME280;63200;48.810;12.352;2023-07-22T00:39:15;97403.41;;;12.57;70.17
74675;BME280;63200;48.810;12.352;2023-07-22T00:41:40;97388.47;;;12.55;70.41
74675;BME280;63200;48.810;12.352;2023-07-22T00:44:09;97405.03;;;12.72;69.91
74675;BME280;63200;48.810;12.352;2023-07-22T00:46:34;97402.00;;;12.74;70.23
74675;BME280;63200;48.810;12.352;2023-07-22T00:49:00;97399.09;;;12.70;70.42
74675;BME280;63200;48.810;12.352;2023-07-22T00:51:25;97401.53;;;12.72;70.64
74675;BME280;63200;48.810;12.352;2023-07-22T00:53:50;97370.50;;;12.54;70.46
74675;BME280;63200;48.810;12.352;2023-07-22T00:56:16;97392.13;;;12.64;70.31
74675;BME280;63200;48.810;12.352;2023-07-22T00:58:41;97386.75;;;12.59;70.29
74675;BME280;63200;48.810;12.352;2023-07-22T01:01:06;97381.41;;;12.54;70.59
74675;BME280;63200;48.810;12.352;2023-07-22T01:03:32;97388.78;;;12.53;70.81
74675;BME280;63200;48.810;12.352;2023-07-22T01:05:58;97350.00;;;12.28;71.29
74675;BME280;63200;48.810;12.352;2023-07-22T01:08:25;97348.88;;;12.29;70.96
74675;BME280;63200;48.810;12.352;2023-07-22T01:10:51;97390.66;;;12.53;71.22
74675;BME280;63200;48.810;12.352;2023-07-22T01:13:16;97383.72;;;12.46;71.10
74675;BME280;63200;48.810;12.352;2023-07-22T01:15:42;97364.84;;;12.36;71.66
74675;BME280;63200;48.810;12.352;2023-07-22T01:18:08;97378.34;;;12.41;72.07
74675;BME280;63200;48.810;12.352;2023-07-22T01:20:33;97376.53;;;12.37;72.19
74675;BME280;63200;48.810;12.352;2023-07-22T01:22:59;97378.44;;;12.36;72.26
74675;BME280;63200;48.810;12.352;2023-07-22T01:25:25;97379.25;;;12.37;72.04
74675;BME280;63200;48.810;12.352;2023-07-22T01:27:51;97377.91;;;12.34;71.84
74675;BME280;63200;48.810;12.352;2023-07-22T01:30:17;97327.13;;;11.96;71.53
74675;BME280;63200;48.810;12.352;2023-07-22T01:32:42;97379.78;;;12.20;71.68
74675;BME280;63200;48.810;12.352;2023-07-22T01:35:08;97372.31;;;12.11;71.96
74675;BME280;63200;48.810;12.352;2023-07-22T01:37:34;97377.84;;;12.06;71.77
74675;BME280;63200;48.810;12.352;2023-07-22T01:39:59;97379.84;;;12.00;71.86
74675;BME280;63200;48.810;12.352;2023-07-22T01:42:25;97384.00;;;11.93;72.08
74675;BME280;63200;48.810;12.352;2023-07-22T01:44:50;97380.63;;;11.82;71.34
74675;BME280;63200;48.810;12.352;2023-07-22T01:47:15;97365.13;;;11.63;71.38
74675;BME280;63200;48.810;12.352;2023-07-22T01:49:41;97383.00;;;11.70;71.37
74675;BME280;63200;48.810;12.352;2023-07-22T01:52:07;97382.16;;;11.69;71.63
74675;BME280;63200;48.810;12.352;2023-07-22T01:54:32;97382.94;;;11.75;72.40
74675;BME280;63200;48.810;12.352;2023-07-22T01:56:58;97393.19;;;11.78;72.60
74675;BME280;63200;48.810;12.352;2023-07-22T01:59:23;97390.19;;;11.79;72.49
74675;BME280;63200;48.810;12.352;2023-07-22T02:01:48;97381.00;;;11.75;71.97
74675;BME280;63200;48.810;12.352;2023-07-22T02:04:14;97392.97;;;11.74;72.08
74675;BME280;63200;48.810;12.352;2023-07-22T02:06:39;97392.03;;;11.65;71.73
74675;BME280;63200;48.810;12.352;2023-07-22T02:09:04;97390.03;;;11.52;72.08
74675;BME280;63200;48.810;12.352;2023-07-22T02:11:36;97393.91;;;11.45;72.39
74675;BME280;63200;48.810;12.352;2023-07-22T02:14:01;97391.72;;;11.47;72.51
74675;BME280;63200;48.810;12.352;2023-07-22T02:16:27;97392.59;;;11.43;72.79
74675;BME280;63200;48.810;12.352;2023-07-22T02:18:52;97394.72;;;11.46;73.14
74675;BME280;63200;48.810;12.352;2023-07-22T02:21:17;97401.25;;;11.45;73.07
74675;BME280;63200;48.810;12.352;2023-07-22T02:23:43;97400.91;;;11.52;73.46
74675;BME280;63200;48.810;12.352;2023-07-22T02:26:08;97407.31;;;11.61;73.71
74675;BME280;63200;48.810;12.352;2023-07-22T02:28:33;97416.94;;;11.72;73.90
74675;BME280;63200;48.810;12.352;2023-07-22T02:31:01;97409.81;;;11.76;73.46
74675;BME280;63200;48.810;12.352;2023-07-22T02:33:31;97404.00;;;11.64;73.50
74675;BME280;63200;48.810;12.352;2023-07-22T02:35:57;97410.38;;;11.54;72.97
74675;BME280;63200;48.810;12.352;2023-07-22T02:38:22;97401.03;;;11.41;72.96
74675;BME280;63200;48.810;12.352;2023-07-22T02:40:47;97412.50;;;11.38;73.06
74675;BME280;63200;48.810;12.352;2023-07-22T02:43:13;97409.31;;;11.31;73.55
74675;BME280;63200;48.810;12.352;2023-07-22T02:45:39;97402.53;;;11.28;73.71
74675;BME280;63200;48.810;12.352;2023-07-22T02:48:04;97409.66;;;11.24;73.42
74675;BME280;63200;48.810;12.352;2023-07-22T02:50:30;97407.59;;;11.16;73.72
74675;BME280;63200;48.810;12.352;2023-07-22T02:52:55;97409.09;;;11.03;73.78
74675;BME280;63200;48.810;12.352;2023-07-22T02:55:21;97408.88;;;10.99;73.67
74675;BME280;63200;48.810;12.352;2023-07-22T02:57:48;97414.41;;;10.89;73.58
74675;BME280;63200;48.810;12.352;2023-07-22T03:00:18;97410.09;;;10.88;74.52
74675;BME280;63200;48.810;12.352;2023-07-22T03:02:49;97414.97;;;10.86;74.81
74675;BME280;63200;48.810;12.352;2023-07-22T03:05:16;97413.28;;;10.95;75.12
74675;BME280;63200;48.810;12.352;2023-07-22T03:07:41;97416.22;;;10.99;75.13
74675;BME280;63200;48.810;12.352;2023-07-22T03:10:07;97418.56;;;11.06;75.34
74675;BME280;63200;48.810;12.352;2023-07-22T03:12:34;97426.31;;;11.17;75.25
74675;BME280;63200;48.810;12.352;2023-07-22T03:14:59;97417.81;;;11.24;74.92
74675;BME280;63200;48.810;12.352;2023-07-22T03:17:25;97425.34;;;11.32;74.54
74675;BME280;63200;48.810;12.352;2023-07-22T03:19:51;97425.63;;;11.31;74.04
74675;BME280;63200;48.810;12.352;2023-07-22T03:22:17;97422.97;;;11.26;73.77
74675;BME280;63200;48.810;12.352;2023-07-22T03:24:43;97429.03;;;11.17;74.13
74675;BME280;63200;48.810;12.352;2023-07-22T03:27:09;97436.69;;;11.15;74.00
74675;BME280;63200;48.810;12.352;2023-07-22T03:29:34;97436.97;;;11.14;73.64
74675;BME280;63200;48.810;12.352;2023-07-22T03:32:00;97433.78;;;11.07;73.98
74675;BME280;63200;48.810;12.352;2023-07-22T03:34:27;97442.88;;;10.97;73.97
74675;BME280;63200;48.810;12.352;2023-07-22T03:36:52;97445.03;;;10.95;74.93
74675;BME280;63200;48.810;12.352;2023-07-22T03:39:17;97444.53;;;10.93;75.08
74675;BME280;63200;48.810;12.352;2023-07-22T03:41:42;97450.19;;;10.96;74.97
74675;BME280;63200;48.810;12.352;2023-07-22T03:44:08;97448.59;;;10.95;74.59
74675;BME280;63200;48.810;12.352;2023-07-22T03:46:33;97452.09;;;10.96;74.33
74675;BME280;63200;48.810;12.352;2023-07-22T03:48:58;97451.00;;;10.97;74.52
74675;BME280;63200;48.810;12.352;2023-07-22T03:51:24;97449.34;;;11.01;74.49
74675;BME280;63200;48.810;12.352;2023-07-22T03:53:49;97441.13;;;11.06;74.13
74675;BME280;63200;48.810;12.352;2023-07-22T03:56:14;97447.56;;;11.15;73.86
74675;BME280;63200;48.810;12.352;2023-07-22T03:58:40;97465.41;;;11.22;73.97
74675;BME280;63200;48.810;12.352;2023-07-22T04:01:05;97456.97;;;11.23;73.91
74675;BME280;63200;48.810;12.352;2023-07-22T04:03:30;97453.69;;;11.26;74.33
74675;BME280;63200;48.810;12.352;2023-07-22T04:05:56;97453.97;;;11.25;74.14
74675;BME280;63200;48.810;12.352;2023-07-22T04:08:22;97463.28;;;11.19;74.21
74675;BME280;63200;48.810;12.352;2023-07-22T04:10:52;97456.78;;;11.14;74.27
74675;BME280;63200;48.810;12.352;2023-07-22T04:13:17;97462.81;;;11.11;74.04
74675;BME280;63200;48.810;12.352;2023-07-22T04:15:43;97459.22;;;11.16;74.06
74675;BME280;63200;48.810;12.352;2023-07-22T04:18:08;97460.78;;;11.22;73.91
74675;BME280;63200;48.810;12.352;2023-07-22T04:20:33;97456.41;;;11.26;74.15
74675;BME280;63200;48.810;12.352;2023-07-22T04:22:59;97453.28;;;11.38;73.54
74675;BME280;63200;48.810;12.352;2023-07-22T04:25:24;97459.38;;;11.49;73.36
74675;BME280;63200;48.810;12.352;2023-07-22T04:27:49;97464.47;;;11.56;73.56
74675;BME280;63200;48.810;12.352;2023-07-22T04:30:15;97462.53;;;11.56;73.51
74675;BME280;63200;48.810;12.352;2023-07-22T04:32:47;97467.19;;;11.56;73.61
74675;BME280;63200;48.810;12.352;2023-07-22T04:35:13;97463.06;;;11.58;73.37
74675;BME280;63200;48.810;12.352;2023-07-22T04:37:38;97455.34;;;11.65;73.43
74675;BME280;63200;48.810;12.352;2023-07-22T04:40:04;97451.13;;;11.78;73.48
74675;BME280;63200;48.810;12.352;2023-07-22T04:42:32;97454.59;;;11.84;73.69
74675;BME280;63200;48.810;12.352;2023-07-22T04:44:57;97453.19;;;11.87;74.23
74675;BME280;63200;48.810;12.352;2023-07-22T04:47:22;97454.16;;;11.96;74.31
74675;BME280;63200;48.810;12.352;2023-07-22T04:49:47;97448.56;;;12.06;74.48
74675;BME280;63200;48.810;12.352;2023-07-22T04:52:13;97455.81;;;12.16;74.46
74675;BME280;63200;48.810;12.352;2023-07-22T04:54:38;97459.41;;;12.30;74.60
74675;BME280;63200;48.810;12.352;2023-07-22T04:57:04;97456.31;;;12.51;74.11
74675;BME280;63200;48.810;12.352;2023-07-22T04:59:29;97457.09;;;12.71;73.26
74675;BME280;63200;48.810;12.352;2023-07-22T05:01:54;97460.34;;;12.87;73.22
74675;BME280;63200;48.810;12.352;2023-07-22T05:04:20;97462.28;;;13.00;72.92
74675;BME280;63200;48.810;12.352;2023-07-22T05:06:45;97473.53;;;13.12;72.93
74675;BME280;63200;48.810;12.352;2023-07-22T05:09:10;97469.19;;;13.25;72.44
74675;BME280;63200;48.810;12.352;2023-07-22T05:11:35;97476.19;;;13.45;71.79
74675;BME280;63200;48.810;12.352;2023-07-22T05:14:01;97473.66;;;13.63;71.32
74675;BME280;63200;48.810;12.352;2023-07-22T05:16:26;97478.97;;;13.82;70.73
74675;BME280;63200;48.810;12.352;2023-07-22T05:18:51;97492.31;;;13.97;70.55
74675;BME280;63200;48.810;12.352;2023-07-22T05:21:17;97492.47;;;14.15;70.24
74675;BME280;63200;48.810;12.352;2023-07-22T05:23:42;97483.63;;;14.32;69.77
74675;BME280;63200;48.810;12.352;2023-07-22T05:26:07;97486.00;;;14.47;69.42
74675;BME280;63200;48.810;12.352;2023-07-22T05:28:33;97484.75;;;14.54;68.92
74675;BME280;63200;48.810;12.352;2023-07-22T05:30:59;97481.41;;;14.57;68.58
74675;BME280;63200;48.810;12.352;2023-07-22T05:33:24;97481.47;;;14.65;68.19
74675;BME280;63200;48.810;12.352;2023-07-22T05:35:50;97486.91;;;14.88;67.83
74675;BME280;63200;48.810;12.352;2023-07-22T05:38:15;97473.84;;;15.08;67.57
74675;BME280;63200;48.810;12.352;2023-07-22T05:40:40;97476.19;;;15.23;67.33
74675;BME280;63200;48.810;12.352;2023-07-22T05:43:07;97486.72;;;15.39;66.83
74675;BME280;63200;48.810;12.352;2023-07-22T05:45:32;97485.66;;;15.57;66.27
74675;BME280;63200;48.810;12.352;2023-07-22T05:47:57;97472.34;;;15.73;65.60
74675;BME280;63200;48.810;12.352;2023-07-22T05:50:22;97487.84;;;15.87;64.88
74675;BME280;63200;48.810;12.352;2023-07-22T05:52:48;97485.94;;;15.96;64.71
74675;BME280;63200;48.810;12.352;2023-07-22T05:55:13;97490.13;;;16.02;64.38
74675;BME280;63200;48.810;12.352;2023-07-22T05:57:39;97495.13;;;16.00;64.36
74675;BME280;63200;48.810;12.352;2023-07-22T06:00:05;97496.56;;;16.15;64.14
74675;BME280;63200;48.810;12.352;2023-07-22T06:02:30;97495.31;;;16.21;63.21
74675;BME280;63200;48.810;12.352;2023-07-22T06:04:55;97490.47;;;16.36;62.83
74675;BME280;63200;48.810;12.352;2023-07-22T06:07:21;97497.91;;;16.53;62.42
74675;BME280;63200;48.810;12.352;2023-07-22T06:09:46;97494.63;;;16.68;61.98
74675;BME280;63200;48.810;12.352;2023-07-22T06:12:11;97498.66;;;16.79;60.38
74675;BME280;63200;48.810;12.352;2023-07-22T06:14:37;97498.50;;;16.93;60.14
74675;BME280;63200;48.810;12.352;2023-07-22T06:17:02;97506.06;;;16.88;59.33
74675;BME280;63200;48.810;12.352;2023-07-22T06:19:27;97506.56;;;17.07;59.04
74675;BME280;63200;48.810;12.352;2023-07-22T06:21:53;97501.69;;;17.22;58.91
74675;BME280;63200;48.810;12.352;2023-07-22T06:24:18;97503.38;;;17.44;58.35
74675;BME280;63200;48.810;12.352;2023-07-22T06:26:44;97501.84;;;17.64;58.03
74675;BME280;63200;48.810;12.352;2023-07-22T06:29:09;97499.66;;;17.78;57.81
74675;BME280;63200;48.810;12.352;2023-07-22T06:31:34;97509.94;;;17.90;57.66
74675;BME280;63200;48.810;12.352;2023-07-22T06:33:59;97504.69;;;18.06;57.20
74675;BME280;63200;48.810;12.352;2023-07-22T06:36:25;97505.84;;;18.26;55.99
74675;BME280;63200;48.810;12.352;2023-07-22T06:38:51;97502.03;;;18.40;55.96
74675;BME280;63200;48.810;12.352;2023-07-22T06:41:16;97510.13;;;18.57;55.35
74675;BME280;63200;48.810;12.352;2023-07-22T06:43:43;97501.94;;;18.70;54.70
74675;BME280;63200;48.810;12.352;2023-07-22T06:46:08;97499.03;;;18.87;54.00
74675;BME280;63200;48.810;12.352;2023-07-22T06:48:33;97510.50;;;19.10;54.16
74675;BME280;63200;48.810;12.352;2023-07-22T06:50:59;97493.44;;;19.29;53.11
74675;BME280;63200;48.810;12.352;2023-07-22T06:53:24;97496.66;;;19.44;53.33
74675;BME280;63200;48.810;12.352;2023-07-22T06:55:51;97503.09;;;19.48;52.23
74675;BME280;63200;48.810;12.352;2023-07-22T06:58:16;97499.31;;;19.77;51.86
74675;BME280;63200;48.810;12.352;2023-07-22T07:00:42;97501.84;;;19.95;51.80
74675;BME280;63200;48.810;12.352;2023-07-22T07:03:07;97501.97;;;20.11;51.21
74675;BME280;63200;48.810;12.352;2023-07-22T07:05:33;97508.28;;;20.11;50.40
74675;BME280;63200;48.810;12.352;2023-07-22T07:07:59;97505.97;;;20.26;50.26
74675;BME280;63200;48.810;12.352;2023-07-22T07:10:24;97509.56;;;20.42;50.14
74675;BME280;63200;48.810;12.352;2023-07-22T07:12:50;97509.81;;;20.50;49.70
74675;BME280;63200;48.810;12.352;2023-07-22T07:15:15;97506.19;;;20.74;49.62
74675;BME280;63200;48.810;12.352;2023-07-22T07:17:40;97510.13;;;20.89;49.21
74675;BME280;63200;48.810;12.352;2023-07-22T07:20:06;97511.84;;;20.93;48.74
74675;BME280;63200;48.810;12.352;2023-07-22T07:22:32;97507.25;;;21.13;48.50
74675;BME280;63200;48.810;12.352;2023-07-22T07:24:57;97510.84;;;21.30;48.06
74675;BME280;63200;48.810;12.352;2023-07-22T07:27:22;97517.84;;;21.56;48.06
74675;BME280;63200;48.810;12.352;2023-07-22T07:29:48;97511.88;;;21.70;46.48
74675;BME280;63200;48.810;12.352;2023-07-22T07:32:13;97514.25;;;21.87;45.96
74675;BME280;63200;48.810;12.352;2023-07-22T07:34:38;97509.13;;;22.05;45.97
74675;BME280;63200;48.810;12.352;2023-07-22T07:37:04;97510.78;;;22.26;45.75
74675;BME280;63200;48.810;12.352;2023-07-22T07:39:29;97513.09;;;22.59;44.68
74675;BME280;63200;48.810;12.352;2023-07-22T07:41:55;97496.13;;;22.61;44.46
74675;BME280;63200;48.810;12.352;2023-07-22T07:44:20;97515.94;;;23.02;44.59
74675;BME280;63200;48.810;12.352;2023-07-22T07:46:45;97515.22;;;23.25;43.51
74675;BME280;63200;48.810;12.352;2023-07-22T07:49:10;97508.81;;;23.44;43.64
74675;BME280;63200;48.810;12.352;2023-07-22T07:51:36;97507.50;;;23.15;42.67
74675;BME280;63200;48.810;12.352;2023-07-22T07:54:01;97509.06;;;23.35;42.79
74675;BME280;63200;48.810;12.352;2023-07-22T07:56:29;97512.41;;;23.44;42.39
74675;BME280;63200;48.810;12.352;2023-07-22T07:58:54;97496.66;;;23.75;41.24
74675;BME280;63200;48.810;12.352;2023-07-22T08:01:20;97510.91;;;24.27;40.06
74675;BME280;63200;48.810;12.352;2023-07-22T08:03:46;97522.13;;;24.35;39.31
74675;BME280;63200;48.810;12.352;2023-07-22T08:06:12;97522.00;;;24.54;38.92
74675;BME280;63200;48.810;12.352;2023-07-22T08:08:38;97505.97;;;25.05;38.04
74675;BME280;63200;48.810;12.352;2023-07-22T08:11:05;97499.06;;;25.29;37.98
74675;BME280;63200;48.810;12.352;2023-07-22T08:13:31;97517.06;;;25.39;37.47
74675;BME280;63200;48.810;12.352;2023-07-22T08:15:59;97514.44;;;25.57;36.67
74675;BME280;63200;48.810;12.352;2023-07-22T08:18:24;97516.34;;;25.46;35.60
74675;BME280;63200;48.810;12.352;2023-07-22T08:20:51;97515.31;;;25.65;36.24
74675;BME280;63200;48.810;12.352;2023-07-22T08:23:17;97510.97;;;25.67;36.73
74675;BME280;63200;48.810;12.352;2023-07-22T08:25:42;97516.31;;;25.94;35.45
74675;BME280;63200;48.810;12.352;2023-07-22T08:28:08;97513.84;;;26.34;34.83
74675;BME280;63200;48.810;12.352;2023-07-22T08:30:33;97508.78;;;26.57;34.24
74675;BME280;63200;48.810;12.352;2023-07-22T08:32:58;97510.38;;;26.55;33.99
74675;BME280;63200;48.810;12.352;2023-07-22T08:35:24;97511.22;;;26.70;34.37
74675;BME280;63200;48.810;12.352;2023-07-22T08:37:49;97512.63;;;27.19;33.50
74675;BME280;63200;48.810;12.352;2023-07-22T08:40:15;97511.50;;;27.49;33.08
74675;BME280;63200;48.810;12.352;2023-07-22T08:42:41;97508.72;;;28.07;32.89
74675;BME280;63200;48.810;12.352;2023-07-22T08:45:09;97510.19;;;27.00;32.00
74675;BME280;63200;48.810;12.352;2023-07-22T08:47:35;97516.63;;;27.22;31.97
74675;BME280;63200;48.810;12.352;2023-07-22T08:50:05;97513.13;;;28.12;31.64
74675;BME280;63200;48.810;12.352;2023-07-22T08:52:33;97520.63;;;28.43;31.04
74675;BME280;63200;48.810;12.352;2023-07-22T08:54:59;97503.56;;;28.05;29.26
74675;BME280;63200;48.810;12.352;2023-07-22T08:57:27;97494.00;;;27.56;30.11
74675;BME280;63200;48.810;12.352;2023-07-22T08:59:54;97469.69;;;26.32;30.12
74675;BME280;63200;48.810;12.352;2023-07-22T09:02:20;97519.09;;;25.42;31.93
74675;BME280;63200;48.810;12.352;2023-07-22T09:04:46;97515.84;;;24.68;33.71
74675;BME280;63200;48.810;12.352;2023-07-22T09:07:12;97480.94;;;24.37;33.99
74675;BME280;63200;48.810;12.352;2023-07-22T09:09:38;97511.06;;;26.34;32.59
74675;BME280;63200;48.810;12.352;2023-07-22T09:12:04;97507.75;;;26.14;30.84
74675;BME280;63200;48.810;12.352;2023-07-22T09:14:33;97508.75;;;25.39;32.02
74675;BME280;63200;48.810;12.352;2023-07-22T09:16:59;97474.19;;;25.40;32.31
74675;BME280;63200;48.810;12.352;2023-07-22T09:19:24;97509.72;;;26.80;31.72
74675;BME280;63200;48.810;12.352;2023-07-22T09:21:50;97504.53;;;26.74;30.32
74675;BME280;63200;48.810;12.352;2023-07-22T09:24:25;97504.28;;;26.27;30.24
74675;BME280;63200;48.810;12.352;2023-07-22T09:26:51;97503.44;;;27.04;30.30
74675;BME280;63200;48.810;12.352;2023-07-22T09:29:17;97497.97;;;27.40;28.92
74675;BME280;63200;48.810;12.352;2023-07-22T09:31:50;97497.41;;;28.72;26.57
74675;BME280;63200;48.810;12.352;2023-07-22T09:34:16;97497.94;;;28.13;27.37
74675;BME280;63200;48.810;12.352;2023-07-22T09:36:54;97501.81;;;28.58;27.64
74675;BME280;63200;48.810;12.352;2023-07-22T09:39:20;97498.34;;;27.86;25.36
74675;BME280;63200;48.810;12.352;2023-07-22T09:41:46;97489.59;;;26.38;28.38
74675;BME280;63200;48.810;12.352;2023-07-22T09:44:11;97503.19;;;25.39;29.80
74675;BME280;63200;48.810;12.352;2023-07-22T09:46:40;97496.94;;;24.77;31.68
74675;BME280;63200;48.810;12.352;2023-07-22T09:49:08;97449.19;;;25.95;30.67
74675;BME280;63200;48.810;12.352;2023-07-22T09:51:35;97484.81;;;27.88;28.63
74675;BME280;63200;48.810;12.352;2023-07-22T09:54:02;97487.28;;;29.03;27.07
74675;BME280;63200;48.810;12.352;2023-07-22T09:56:28;97493.19;;;29.80;26.71
74675;BME280;63200;48.810;12.352;2023-07-22T09:58:54;97469.13;;;29.86;25.59
74675;BME280;63200;48.810;12.352;2023-07-22T10:01:22;97466.91;;;27.46;27.33
74675;BME280;63200;48.810;12.352;2023-07-22T10:03:53;97484.28;;;26.85;28.31
74675;BME280;63200;48.810;12.352;2023-07-22T10:06:21;97466.81;;;26.14;28.79
74675;BME280;63200;48.810;12.352;2023-07-22T10:08:49;97483.91;;;26.13;29.11
74675;BME280;63200;48.810;12.352;2023-07-22T10:11:14;97487.44;;;24.78;30.82
74675;BME280;63200;48.810;12.352;2023-07-22T10:13:40;97481.47;;;26.07;30.21
74675;BME280;63200;48.810;12.352;2023-07-22T10:16:05;97475.84;;;26.00;30.49
74675;BME280;63200;48.810;12.352;2023-07-22T10:18:33;97476.44;;;27.66;28.48
74675;BME280;63200;48.810;12.352;2023-07-22T10:20:59;97482.81;;;27.49;27.88
74675;BME280;63200;48.810;12.352;2023-07-22T10:23:26;97461.69;;;28.05;26.23
74675;BME280;63200;48.810;12.352;2023-07-22T10:25:52;97478.00;;;28.18;26.50
74675;BME280;63200;48.810;12.352;2023-07-22T10:28:20;97468.09;;;27.45;28.00
74675;BME280;63200;48.810;12.352;2023-07-22T10:30:46;97468.91;;;27.52;28.79
74675;BME280;63200;48.810;12.352;2023-07-22T10:33:11;97472.06;;;27.83;27.36
74675;BME280;63200;48.810;12.352;2023-07-22T10:35:41;97466.88;;;27.82;27.04
74675;BME280;63200;48.810;12.352;2023-07-22T10:38:13;97417.81;;;26.87;28.20
74675;BME280;63200;48.810;12.352;2023-07-22T10:40:53;97452.53;;;26.16;28.81
74675;BME280;63200;48.810;12.352;2023-07-22T10:43:27;97469.22;;;26.19;28.34
74675;BME280;63200;48.810;12.352;2023-07-22T10:45:56;97462.91;;;27.61;27.22
74675;BME280;63200;48.810;12.352;2023-07-22T10:48:23;97462.97;;;28.93;25.18
74675;BME280;63200;48.810;12.352;2023-07-22T10:50:52;97465.94;;;28.57;25.00
74675;BME280;63200;48.810;12.352;2023-07-22T10:56:12;97445.13;;;29.88;22.95
74675;BME280;63200;48.810;12.352;2023-07-22T11:12:14;97423.38;;;31.31;21.50
74675;BME280;63200;48.810;12.352;2023-07-22T11:14:47;97423.81;;;30.71;22.11
74675;BME280;63200;48.810;12.352;2023-07-22T11:17:12;97421.97;;;30.61;22.17
74675;BME280;63200;48.810;12.352;2023-07-22T11:19:39;97417.50;;;31.21;22.18
74675;BME280;63200;48.810;12.352;2023-07-22T11:22:05;97411.69;;;31.36;21.54
74675;BME280;63200;48.810;12.352;2023-07-22T11:24:33;97409.06;;;31.72;20.84
74675;BME280;63200;48.810;12.352;2023-07-22T11:26:59;97404.72;;;31.92;20.44
74675;BME280;63200;48.810;12.352;2023-07-22T11:29:27;97404.50;;;31.82;20.48
74675;BME280;63200;48.810;12.352;2023-07-22T11:31:53;97411.25;;;31.37;20.83
74675;BME280;63200;48.810;12.352;2023-07-22T11:34:20;97408.59;;;30.72;20.97
74675;BME280;63200;48.810;12.352;2023-07-22T11:36:47;97405.16;;;29.91;22.82
74675;BME280;63200;48.810;12.352;2023-07-22T11:39:17;97401.59;;;30.84;21.99
74675;BME280;63200;48.810;12.352;2023-07-22T11:41:44;97394.84;;;30.54;21.11
74675;BME280;63200;48.810;12.352;2023-07-22T11:44:12;97394.75;;;28.90;23.42
74675;BME280;63200;48.810;12.352;2023-07-22T11:47:00;97388.84;;;31.10;21.54
74675;BME280;63200;48.810;12.352;2023-07-22T11:49:27;97387.22;;;31.60;20.64
74675;BME280;63200;48.810;12.352;2023-07-22T11:51:57;97381.41;;;31.95;21.37
74675;BME280;63200;48.810;12.352;2023-07-22T11:54:23;97382.88;;;32.23;19.95
74675;BME280;63200;48.810;12.352;2023-07-22T11:56:48;97388.44;;;31.35;20.88
74675;BME280;63200;48.810;12.352;2023-07-22T11:59:13;97381.25;;;31.34;20.57
74675;BME280;63200;48.810;12.352;2023-07-22T12:01:39;97378.69;;;29.96;22.07
74675;BME280;63200;48.810;12.352;2023-07-22T12:04:10;97379.00;;;29.15;23.12
74675;BME280;63200;48.810;12.352;2023-07-22T12:06:36;97358.34;;;28.27;23.71
74675;BME280;63200;48.810;12.352;2023-07-22T12:09:01;97376.16;;;28.55;24.70
74675;BME280;63200;48.810;12.352;2023-07-22T12:11:32;97364.34;;;29.49;23.40
74675;BME280;63200;48.810;12.352;2023-07-22T12:16:34;97369.84;;;28.43;23.83
74675;BME280;63200;48.810;12.352;2023-07-22T12:19:01;97357.66;;;29.39;21.95
74675;BME280;63200;48.810;12.352;2023-07-22T12:21:27;97361.19;;;29.47;21.21
74675;BME280;63200;48.810;12.352;2023-07-22T12:23:53;97362.03;;;28.91;22.41
74675;BME280;63200;48.810;12.352;2023-07-22T12:26:18;97354.72;;;28.37;22.82
74675;BME280;63200;48.810;12.352;2023-07-22T12:28:44;97360.09;;;27.77;23.54
74675;BME280;63200;48.810;12.352;2023-07-22T12:31:09;97344.34;;;29.50;23.25
74675;BME280;63200;48.810;12.352;2023-07-22T12:33:34;97350.25;;;29.14;22.50
74675;BME280;63200;48.810;12.352;2023-07-22T12:36:00;97343.41;;;28.63;23.47
74675;BME280;63200;48.810;12.352;2023-07-22T12:38:25;97343.31;;;27.96;24.40
74675;BME280;63200;48.810;12.352;2023-07-22T12:40:50;97351.00;;;27.16;24.85
74675;BME280;63200;48.810;12.352;2023-07-22T12:43:16;97347.78;;;27.57;24.97
74675;BME280;63200;48.810;12.352;2023-07-22T12:45:41;97296.00;;;27.67;24.14
74675;BME280;63200;48.810;12.352;2023-07-22T12:48:06;97325.44;;;29.65;23.01
74675;BME280;63200;48.810;12.352;2023-07-22T12:50:32;97327.88;;;31.14;21.34
74675;BME280;63200;48.810;12.352;2023-07-22T12:53:01;97336.91;;;31.49;19.92
74675;BME280;63200;48.810;12.352;2023-07-22T12:55:28;97328.50;;;31.49;19.96
74675;BME280;63200;48.810;12.352;2023-07-22T12:57:53;97323.72;;;30.13;21.51
74675;BME280;63200;48.810;12.352;2023-07-22T13:00:18;97321.88;;;30.61;21.11
74675;BME280;63200;48.810;12.352;2023-07-22T13:02:44;97317.97;;;30.82;20.66